sensor_id;sensor_type;location;lat;lon;timestamp;P1;durP1;ratioP1;P2;durP2;ratioP2
73747;SDS011;62056;52.130;5.428;2023-05-10T00:01:36;17.13;;;12.43;;
73747;SDS011;62056;52.130;5.428;2023-05-10T00:04:03;22.48;;;13.10;;
73747;SDS011;62056;52.130;5.428;2023-05-10T00:06:30;20.33;;;12.38;;
73747;SDS011;62056;52.130;5.428;2023-05-10T00:08:57;18.93;;;12.87;;
73747;SDS011;62056;52.130;5.428;2023-05-10T00:11:24;17.30;;;11.77;;
73747;SDS011;62056;52.130;5.428;2023-05-10T00:13:50;16.85;;;12.55;;
73747;SDS011;62056;52.130;5.428;2023-05-10T00:16:17;15.48;;;12.02;;
73747;SDS011;62056;52.130;5.428;2023-05-10T00:18:44;19.55;;;12.77;;
73747;SDS011;62056;52.130;5.428;2023-05-10T00:21:10;20.70;;;14.20;;
73747;SDS011;62056;52.130;5.428;2023-05-10T00:23:37;23.30;;;14.55;;
73747;SDS011;62056;52.130;5.428;2023-05-10T00:26:04;25.45;;;15.52;;
73747;SDS011;62056;52.130;5.428;2023-05-10T00:28:30;28.65;;;16.73;;
73747;SDS011;62056;52.130;5.428;2023-05-10T00:31:10;30.77;;;16.85;;
73747;SDS011;62056;52.130;5.428;2023-05-10T00:33:41;31.80;;;19.83;;
73747;SDS011;62056;52.130;5.428;2023-05-10T00:36:08;30.55;;;16.58;;
73747;SDS011;62056;52.130;5.428;2023-05-10T00:38:34;24.90;;;16.55;;
73747;SDS011;62056;52.130;5.428;2023-05-10T00:41:03;20.45;;;14.48;;
73747;SDS011;62056;52.130;5.428;2023-05-10T00:43:30;25.20;;;16.02;;
73747;SDS011;62056;52.130;5.428;2023-05-10T00:45:56;28.07;;;17.37;;
73747;SDS011;62056;52.130;5.428;2023-05-10T00:48:23;25.67;;;16.50;;
73747;SDS011;62056;52.130;5.428;2023-05-10T00:50:50;26.88;;;17.10;;
73747;SDS011;62056;52.130;5.428;2023-05-10T00:53:17;32.63;;;18.55;;
73747;SDS011;62056;52.130;5.428;2023-05-10T00:55:44;36.72;;;21.20;;
73747;SDS011;62056;52.130;5.428;2023-05-10T00:58:11;33.87;;;19.40;;
73747;SDS011;62056;52.130;5.428;2023-05-10T01:00:38;37.53;;;20.33;;
73747;SDS011;62056;52.130;5.428;2023-05-10T01:03:10;34.65;;;19.02;;
73747;SDS011;62056;52.130;5.428;2023-05-10T01:05:37;35.97;;;20.15;;
73747;SDS011;62056;52.130;5.428;2023-05-10T01:08:04;32.40;;;18.42;;
73747;SDS011;62056;52.130;5.428;2023-05-10T01:10:31;38.27;;;20.73;;
73747;SDS011;62056;52.130;5.428;2023-05-10T01:12:58;43.35;;;23.08;;
73747;SDS011;62056;52.130;5.428;2023-05-10T01:15:25;44.05;;;23.33;;
73747;SDS011;62056;52.130;5.428;2023-05-10T01:17:53;36.13;;;20.75;;
73747;SDS011;62056;52.130;5.428;2023-05-10T01:20:20;38.20;;;20.83;;
73747;SDS011;62056;52.130;5.428;2023-05-10T01:34:34;42.38;;;21.35;;
73747;SDS011;62056;52.130;5.428;2023-05-10T01:37:08;59.70;;;32.43;;
73747;SDS011;62056;52.130;5.428;2023-05-10T01:39:50;39.67;;;19.90;;
73747;SDS011;62056;52.130;5.428;2023-05-10T01:42:25;37.70;;;19.30;;
73747;SDS011;62056;52.130;5.428;2023-05-10T01:47:31;38.65;;;18.88;;
73747;SDS011;62056;52.130;5.428;2023-05-10T01:50:04;37.03;;;18.57;;
73747;SDS011;62056;52.130;5.428;2023-05-10T01:52:36;50.50;;;21.85;;
73747;SDS011;62056;52.130;5.428;2023-05-10T01:55:11;35.83;;;19.25;;
73747;SDS011;62056;52.130;5.428;2023-05-10T01:57:42;40.33;;;20.63;;
73747;SDS011;62056;52.130;5.428;2023-05-10T02:00:11;42.13;;;20.38;;
73747;SDS011;62056;52.130;5.428;2023-05-10T02:02:40;39.80;;;20.80;;
73747;SDS011;62056;52.130;5.428;2023-05-10T02:05:38;50.17;;;21.48;;
73747;SDS011;62056;52.130;5.428;2023-05-10T02:08:07;47.95;;;21.70;;
73747;SDS011;62056;52.130;5.428;2023-05-10T02:10:35;41.78;;;20.05;;
73747;SDS011;62056;52.130;5.428;2023-05-10T02:13:31;46.25;;;20.58;;
73747;SDS011;62056;52.130;5.428;2023-05-10T02:16:00;52.60;;;22.93;;
73747;SDS011;62056;52.130;5.428;2023-05-10T02:18:29;46.95;;;22.42;;
73747;SDS011;62056;52.130;5.428;2023-05-10T02:20:57;43.38;;;21.55;;
73747;SDS011;62056;52.130;5.428;2023-05-10T02:23:25;51.42;;;26.40;;
73747;SDS011;62056;52.130;5.428;2023-05-10T02:25:53;40.90;;;20.20;;
73747;SDS011;62056;52.130;5.428;2023-05-10T02:28:23;46.63;;;22.27;;
73747;SDS011;62056;52.130;5.428;2023-05-10T02:30:51;45.45;;;20.92;;
73747;SDS011;62056;52.130;5.428;2023-05-10T02:33:19;36.72;;;17.85;;
73747;SDS011;62056;52.130;5.428;2023-05-10T02:35:48;37.75;;;18.17;;
73747;SDS011;62056;52.130;5.428;2023-05-10T02:38:16;35.92;;;19.02;;
73747;SDS011;62056;52.130;5.428;2023-05-10T02:40:45;41.57;;;20.00;;
73747;SDS011;62056;52.130;5.428;2023-05-10T02:43:14;39.70;;;19.75;;
73747;SDS011;62056;52.130;5.428;2023-05-10T02:45:43;39.08;;;20.70;;
73747;SDS011;62056;52.130;5.428;2023-05-10T02:48:14;48.72;;;21.85;;
73747;SDS011;62056;52.130;5.428;2023-05-10T02:50:43;43.67;;;20.40;;
73747;SDS011;62056;52.130;5.428;2023-05-10T02:53:11;35.47;;;17.77;;
73747;SDS011;62056;52.130;5.428;2023-05-10T02:55:49;46.58;;;22.15;;
73747;SDS011;62056;52.130;5.428;2023-05-10T02:58:18;44.30;;;22.00;;
73747;SDS011;62056;52.130;5.428;2023-05-10T03:00:47;42.45;;;20.85;;
73747;SDS011;62056;52.130;5.428;2023-05-10T03:03:14;35.65;;;17.23;;
73747;SDS011;62056;52.130;5.428;2023-05-10T03:05:40;53.23;;;19.87;;
73747;SDS011;62056;52.130;5.428;2023-05-10T03:08:07;46.92;;;22.63;;
73747;SDS011;62056;52.130;5.428;2023-05-10T03:10:39;54.72;;;24.42;;
73747;SDS011;62056;52.130;5.428;2023-05-10T03:16:07;56.58;;;24.00;;
73747;SDS011;62056;52.130;5.428;2023-05-10T03:18:42;42.87;;;19.40;;
73747;SDS011;62056;52.130;5.428;2023-05-10T03:21:14;55.55;;;24.73;;
73747;SDS011;62056;52.130;5.428;2023-05-10T03:23:46;56.10;;;24.35;;
73747;SDS011;62056;52.130;5.428;2023-05-10T03:26:23;55.42;;;24.40;;
73747;SDS011;62056;52.130;5.428;2023-05-10T03:28:52;60.85;;;25.67;;
73747;SDS011;62056;52.130;5.428;2023-05-10T03:31:20;55.53;;;23.83;;
73747;SDS011;62056;52.130;5.428;2023-05-10T03:33:48;58.80;;;22.63;;
73747;SDS011;62056;52.130;5.428;2023-05-10T03:36:16;60.13;;;24.85;;
73747;SDS011;62056;52.130;5.428;2023-05-10T03:38:43;65.57;;;24.92;;
73747;SDS011;62056;52.130;5.428;2023-05-10T03:41:10;58.33;;;24.33;;
73747;SDS011;62056;52.130;5.428;2023-05-10T03:43:36;66.10;;;25.23;;
73747;SDS011;62056;52.130;5.428;2023-05-10T03:46:03;60.60;;;26.50;;
73747;SDS011;62056;52.130;5.428;2023-05-10T03:48:30;60.08;;;26.13;;
73747;SDS011;62056;52.130;5.428;2023-05-10T03:50:58;65.78;;;30.67;;
73747;SDS011;62056;52.130;5.428;2023-05-10T03:53:25;59.83;;;26.65;;
73747;SDS011;62056;52.130;5.428;2023-05-10T03:55:52;72.80;;;26.97;;
73747;SDS011;62056;52.130;5.428;2023-05-10T03:58:18;69.85;;;25.98;;
73747;SDS011;62056;52.130;5.428;2023-05-10T04:00:45;49.13;;;20.75;;
73747;SDS011;62056;52.130;5.428;2023-05-10T04:03:12;63.05;;;26.10;;
73747;SDS011;62056;52.130;5.428;2023-05-10T04:05:39;64.03;;;24.75;;
73747;SDS011;62056;52.130;5.428;2023-05-10T04:08:06;64.93;;;25.97;;
73747;SDS011;62056;52.130;5.428;2023-05-10T04:10:33;60.05;;;24.60;;
73747;SDS011;62056;52.130;5.428;2023-05-10T04:13:00;58.05;;;22.98;;
73747;SDS011;62056;52.130;5.428;2023-05-10T04:15:27;71.40;;;26.75;;
73747;SDS011;62056;52.130;5.428;2023-05-10T04:18:21;59.72;;;23.45;;
73747;SDS011;62056;52.130;5.428;2023-05-10T04:20:47;69.80;;;27.40;;
73747;SDS011;62056;52.130;5.428;2023-05-10T04:23:16;56.55;;;21.38;;
73747;SDS011;62056;52.130;5.428;2023-05-10T04:25:42;63.97;;;24.30;;
73747;SDS011;62056;52.130;5.428;2023-05-10T04:28:09;59.38;;;24.38;;
73747;SDS011;62056;52.130;5.428;2023-05-10T04:30:36;55.72;;;22.23;;
73747;SDS011;62056;52.130;5.428;2023-05-10T04:33:03;48.77;;;19.73;;
73747;SDS011;62056;52.130;5.428;2023-05-10T04:35:29;63.03;;;25.25;;
73747;SDS011;62056;52.130;5.428;2023-05-10T04:38:23;53.78;;;21.92;;
73747;SDS011;62056;52.130;5.428;2023-05-10T04:40:50;47.60;;;20.92;;
73747;SDS011;62056;52.130;5.428;2023-05-10T04:43:22;52.22;;;20.05;;
73747;SDS011;62056;52.130;5.428;2023-05-10T04:45:49;55.23;;;21.63;;
73747;SDS011;62056;52.130;5.428;2023-05-10T04:48:16;54.80;;;23.08;;
73747;SDS011;62056;52.130;5.428;2023-05-10T04:50:43;54.97;;;21.60;;
73747;SDS011;62056;52.130;5.428;2023-05-10T04:53:37;48.70;;;18.55;;
73747;SDS011;62056;52.130;5.428;2023-05-10T04:56:04;55.85;;;21.52;;
73747;SDS011;62056;52.130;5.428;2023-05-10T04:58:31;55.93;;;23.23;;
73747;SDS011;62056;52.130;5.428;2023-05-10T05:00:59;61.75;;;23.08;;
73747;SDS011;62056;52.130;5.428;2023-05-10T05:03:31;59.60;;;22.45;;
73747;SDS011;62056;52.130;5.428;2023-05-10T05:05:59;67.00;;;23.67;;
73747;SDS011;62056;52.130;5.428;2023-05-10T05:08:25;58.80;;;22.58;;
73747;SDS011;62056;52.130;5.428;2023-05-10T05:10:52;59.87;;;22.83;;
73747;SDS011;62056;52.130;5.428;2023-05-10T05:13:18;56.80;;;22.38;;
73747;SDS011;62056;52.130;5.428;2023-05-10T05:15:45;63.03;;;23.45;;
73747;SDS011;62056;52.130;5.428;2023-05-10T05:18:12;71.15;;;26.27;;
73747;SDS011;62056;52.130;5.428;2023-05-10T05:20:39;64.57;;;23.92;;
73747;SDS011;62056;52.130;5.428;2023-05-10T05:23:33;53.67;;;20.20;;
73747;SDS011;62056;52.130;5.428;2023-05-10T05:26:00;54.88;;;23.60;;
73747;SDS011;62056;52.130;5.428;2023-05-10T05:28:27;55.92;;;22.23;;
73747;SDS011;62056;52.130;5.428;2023-05-10T05:30:59;57.83;;;22.08;;
73747;SDS011;62056;52.130;5.428;2023-05-10T05:33:25;62.35;;;25.30;;
73747;SDS011;62056;52.130;5.428;2023-05-10T05:35:52;63.60;;;25.07;;
73747;SDS011;62056;52.130;5.428;2023-05-10T05:38:46;54.55;;;23.40;;
73747;SDS011;62056;52.130;5.428;2023-05-10T05:41:12;56.25;;;23.33;;
73747;SDS011;62056;52.130;5.428;2023-05-10T05:44:06;55.40;;;23.30;;
73747;SDS011;62056;52.130;5.428;2023-05-10T05:46:33;53.58;;;22.48;;
73747;SDS011;62056;52.130;5.428;2023-05-10T05:49:00;57.07;;;20.80;;
73747;SDS011;62056;52.130;5.428;2023-05-10T05:51:27;55.15;;;24.42;;
73747;SDS011;62056;52.130;5.428;2023-05-10T05:53:54;61.17;;;24.20;;
73747;SDS011;62056;52.130;5.428;2023-05-10T05:56:20;58.03;;;22.58;;
73747;SDS011;62056;52.130;5.428;2023-05-10T05:58:54;48.95;;;20.95;;
73747;SDS011;62056;52.130;5.428;2023-05-10T06:01:20;62.93;;;23.17;;
73747;SDS011;62056;52.130;5.428;2023-05-10T06:03:47;59.58;;;24.15;;
73747;SDS011;62056;52.130;5.428;2023-05-10T06:06:17;55.03;;;21.95;;
73747;SDS011;62056;52.130;5.428;2023-05-10T06:08:43;57.22;;;22.75;;
73747;SDS011;62056;52.130;5.428;2023-05-10T06:11:10;48.67;;;20.95;;
73747;SDS011;62056;52.130;5.428;2023-05-10T06:13:37;50.03;;;18.33;;
73747;SDS011;62056;52.130;5.428;2023-05-10T06:16:03;46.58;;;20.10;;
73747;SDS011;62056;52.130;5.428;2023-05-10T06:18:30;37.50;;;19.73;;
73747;SDS011;62056;52.130;5.428;2023-05-10T06:20:57;47.88;;;21.25;;
73747;SDS011;62056;52.130;5.428;2023-05-10T06:23:24;46.00;;;21.73;;
73747;SDS011;62056;52.130;5.428;2023-05-10T06:25:51;55.67;;;23.63;;
73747;SDS011;62056;52.130;5.428;2023-05-10T06:28:18;52.97;;;22.60;;
73747;SDS011;62056;52.130;5.428;2023-05-10T06:30:45;53.45;;;21.30;;
73747;SDS011;62056;52.130;5.428;2023-05-10T06:33:39;41.53;;;18.67;;
73747;SDS011;62056;52.130;5.428;2023-05-10T06:36:07;42.80;;;20.17;;
73747;SDS011;62056;52.130;5.428;2023-05-10T06:39:01;40.47;;;17.77;;
73747;SDS011;62056;52.130;5.428;2023-05-10T06:41:28;39.22;;;18.05;;
73747;SDS011;62056;52.130;5.428;2023-05-10T06:43:55;36.88;;;16.85;;
73747;SDS011;62056;52.130;5.428;2023-05-10T06:46:21;36.00;;;16.60;;
73747;SDS011;62056;52.130;5.428;2023-05-10T06:48:48;30.48;;;15.43;;
73747;SDS011;62056;52.130;5.428;2023-05-10T06:51:15;32.23;;;15.17;;
73747;SDS011;62056;52.130;5.428;2023-05-10T06:53:46;25.15;;;13.63;;
73747;SDS011;62056;52.130;5.428;2023-05-10T06:56:13;29.65;;;14.43;;
73747;SDS011;62056;52.130;5.428;2023-05-10T06:58:40;27.98;;;14.18;;
73747;SDS011;62056;52.130;5.428;2023-05-10T07:01:06;28.52;;;13.88;;
73747;SDS011;62056;52.130;5.428;2023-05-10T07:03:33;24.43;;;12.93;;
73747;SDS011;62056;52.130;5.428;2023-05-10T07:06:03;26.23;;;10.88;;
73747;SDS011;62056;52.130;5.428;2023-05-10T07:08:57;21.08;;;10.13;;
73747;SDS011;62056;52.130;5.428;2023-05-10T07:11:24;15.90;;;8.93;;
73747;SDS011;62056;52.130;5.428;2023-05-10T07:13:50;18.27;;;10.48;;
73747;SDS011;62056;52.130;5.428;2023-05-10T07:16:17;14.37;;;8.57;;
73747;SDS011;62056;52.130;5.428;2023-05-10T07:18:44;14.00;;;9.13;;
73747;SDS011;62056;52.130;5.428;2023-05-10T07:21:11;11.10;;;8.05;;
73747;SDS011;62056;52.130;5.428;2023-05-10T07:23:43;13.60;;;9.40;;
73747;SDS011;62056;52.130;5.428;2023-05-10T07:26:10;12.93;;;7.95;;
73747;SDS011;62056;52.130;5.428;2023-05-10T07:28:37;14.27;;;8.93;;
73747;SDS011;62056;52.130;5.428;2023-05-10T07:31:05;10.73;;;7.15;;
73747;SDS011;62056;52.130;5.428;2023-05-10T07:33:32;9.13;;;6.55;;
73747;SDS011;62056;52.130;5.428;2023-05-10T07:35:59;12.38;;;8.05;;
73747;SDS011;62056;52.130;5.428;2023-05-10T07:38:26;12.55;;;7.68;;
73747;SDS011;62056;52.130;5.428;2023-05-10T07:40:53;11.20;;;7.60;;
73747;SDS011;62056;52.130;5.428;2023-05-10T07:43:47;12.27;;;8.00;;
73747;SDS011;62056;52.130;5.428;2023-05-10T07:46:41;15.05;;;7.15;;
73747;SDS011;62056;52.130;5.428;2023-05-10T07:49:35;9.73;;;6.65;;
73747;SDS011;62056;52.130;5.428;2023-05-10T07:52:02;9.90;;;6.85;;
73747;SDS011;62056;52.130;5.428;2023-05-10T07:54:30;13.13;;;8.13;;
73747;SDS011;62056;52.130;5.428;2023-05-10T07:56:57;9.85;;;6.47;;
73747;SDS011;62056;52.130;5.428;2023-05-10T07:59:24;16.55;;;7.80;;
73747;SDS011;62056;52.130;5.428;2023-05-10T08:01:58;8.25;;;6.32;;
73747;SDS011;62056;52.130;5.428;2023-05-10T08:04:25;10.82;;;7.82;;
73747;SDS011;62056;52.130;5.428;2023-05-10T08:06:52;11.13;;;7.37;;
73747;SDS011;62056;52.130;5.428;2023-05-10T08:09:18;12.65;;;7.55;;
73747;SDS011;62056;52.130;5.428;2023-05-10T08:11:50;7.82;;;7.03;;
73747;SDS011;62056;52.130;5.428;2023-05-10T08:14:17;8.00;;;6.15;;
73747;SDS011;62056;52.130;5.428;2023-05-10T08:16:44;6.80;;;6.10;;
73747;SDS011;62056;52.130;5.428;2023-05-10T08:19:11;9.50;;;6.33;;
73747;SDS011;62056;52.130;5.428;2023-05-10T08:21:38;11.32;;;7.90;;
73747;SDS011;62056;52.130;5.428;2023-05-10T08:24:06;12.75;;;7.25;;
73747;SDS011;62056;52.130;5.428;2023-05-10T08:26:33;7.30;;;5.70;;
73747;SDS011;62056;52.130;5.428;2023-05-10T08:29:00;10.73;;;7.70;;
73747;SDS011;62056;52.130;5.428;2023-05-10T08:31:26;9.70;;;7.05;;
73747;SDS011;62056;52.130;5.428;2023-05-10T08:34:20;9.75;;;7.50;;
73747;SDS011;62056;52.130;5.428;2023-05-10T08:36:47;8.63;;;7.22;;
73747;SDS011;62056;52.130;5.428;2023-05-10T08:39:14;10.00;;;7.72;;
73747;SDS011;62056;52.130;5.428;2023-05-10T08:41:55;9.18;;;7.50;;
73747;SDS011;62056;52.130;5.428;2023-05-10T08:44:27;10.38;;;7.68;;
73747;SDS011;62056;52.130;5.428;2023-05-10T08:46:54;10.68;;;7.72;;
73747;SDS011;62056;52.130;5.428;2023-05-10T08:49:21;10.68;;;7.65;;
73747;SDS011;62056;52.130;5.428;2023-05-10T08:51:51;11.73;;;8.43;;
73747;SDS011;62056;52.130;5.428;2023-05-10T08:54:21;14.60;;;8.63;;
73747;SDS011;62056;52.130;5.428;2023-05-10T08:56:49;10.90;;;8.60;;
73747;SDS011;62056;52.130;5.428;2023-05-10T08:59:15;11.95;;;9.00;;
73747;SDS011;62056;52.130;5.428;2023-05-10T09:01:43;9.35;;;8.05;;
73747;SDS011;62056;52.130;5.428;2023-05-10T09:04:12;9.68;;;7.97;;
73747;SDS011;62056;52.130;5.428;2023-05-10T09:06:39;9.93;;;8.38;;
73747;SDS011;62056;52.130;5.428;2023-05-10T09:09:06;8.40;;;7.23;;
73747;SDS011;62056;52.130;5.428;2023-05-10T09:11:33;10.93;;;6.75;;
73747;SDS011;62056;52.130;5.428;2023-05-10T09:14:00;7.55;;;6.45;;
73747;SDS011;62056;52.130;5.428;2023-05-10T09:16:27;9.35;;;6.22;;
73747;SDS011;62056;52.130;5.428;2023-05-10T09:18:54;11.02;;;7.90;;
73747;SDS011;62056;52.130;5.428;2023-05-10T09:21:21;11.10;;;7.00;;
73747;SDS011;62056;52.130;5.428;2023-05-10T09:23:48;6.72;;;5.72;;
73747;SDS011;62056;52.130;5.428;2023-05-10T09:26:16;6.40;;;4.88;;
73747;SDS011;62056;52.130;5.428;2023-05-10T09:28:53;6.45;;;5.63;;
73747;SDS011;62056;52.130;5.428;2023-05-10T09:31:22;6.07;;;5.47;;
73747;SDS011;62056;52.130;5.428;2023-05-10T09:34:19;6.30;;;4.50;;
73747;SDS011;62056;52.130;5.428;2023-05-10T09:36:55;3.88;;;3.45;;
73747;SDS011;62056;52.130;5.428;2023-05-10T09:39:30;3.72;;;2.90;;
73747;SDS011;62056;52.130;5.428;2023-05-10T09:41:59;3.85;;;3.08;;
73747;SDS011;62056;52.130;5.428;2023-05-10T09:44:59;4.95;;;2.83;;
73747;SDS011;62056;52.130;5.428;2023-05-10T09:47:36;3.55;;;3.20;;
73747;SDS011;62056;52.130;5.428;2023-05-10T09:50:03;4.13;;;3.40;;
73747;SDS011;62056;52.130;5.428;2023-05-10T09:52:31;5.55;;;3.20;;
73747;SDS011;62056;52.130;5.428;2023-05-10T09:55:16;3.25;;;3.00;;
73747;SDS011;62056;52.130;5.428;2023-05-10T09:57:44;3.63;;;3.15;;
73747;SDS011;62056;52.130;5.428;2023-05-10T10:00:16;3.80;;;3.40;;
73747;SDS011;62056;52.130;5.428;2023-05-10T10:02:47;5.03;;;3.10;;
73747;SDS011;62056;52.130;5.428;2023-05-10T10:05:20;4.47;;;2.67;;
73747;SDS011;62056;52.130;5.428;2023-05-10T10:07:47;3.78;;;3.47;;
73747;SDS011;62056;52.130;5.428;2023-05-10T10:10:18;6.82;;;3.30;;
73747;SDS011;62056;52.130;5.428;2023-05-10T10:12:44;4.90;;;3.00;;
73747;SDS011;62056;52.130;5.428;2023-05-10T10:15:39;5.00;;;3.70;;
73747;SDS011;62056;52.130;5.428;2023-05-10T10:18:06;4.05;;;3.50;;
73747;SDS011;62056;52.130;5.428;2023-05-10T10:20:34;4.22;;;3.22;;
73747;SDS011;62056;52.130;5.428;2023-05-10T10:23:31;3.40;;;3.10;;
73747;SDS011;62056;52.130;5.428;2023-05-10T10:26:25;4.75;;;3.60;;
73747;SDS011;62056;52.130;5.428;2023-05-10T10:29:11;5.80;;;3.92;;
73747;SDS011;62056;52.130;5.428;2023-05-10T10:34:50;4.80;;;4.18;;
73747;SDS011;62056;52.130;5.428;2023-05-10T10:37:17;5.05;;;4.15;;
73747;SDS011;62056;52.130;5.428;2023-05-10T10:39:44;6.35;;;4.55;;
73747;SDS011;62056;52.130;5.428;2023-05-10T10:42:15;6.38;;;4.28;;
73747;SDS011;62056;52.130;5.428;2023-05-10T10:45:13;5.90;;;5.25;;
73747;SDS011;62056;52.130;5.428;2023-05-10T10:47:40;5.85;;;4.65;;
73747;SDS011;62056;52.130;5.428;2023-05-10T10:50:09;5.55;;;4.05;;
73747;SDS011;62056;52.130;5.428;2023-05-10T10:52:39;9.07;;;4.20;;
73747;SDS011;62056;52.130;5.428;2023-05-10T10:55:34;6.43;;;4.30;;
73747;SDS011;62056;52.130;5.428;2023-05-10T10:58:40;5.20;;;3.85;;
73747;SDS011;62056;52.130;5.428;2023-05-10T11:03:40;4.85;;;4.38;;
73747;SDS011;62056;52.130;5.428;2023-05-10T11:06:30;5.40;;;4.05;;
73747;SDS011;62056;52.130;5.428;2023-05-10T11:09:05;4.70;;;3.73;;
73747;SDS011;62056;52.130;5.428;2023-05-10T11:11:34;4.20;;;3.70;;
73747;SDS011;62056;52.130;5.428;2023-05-10T11:14:04;5.30;;;3.70;;
73747;SDS011;62056;52.130;5.428;2023-05-10T11:16:43;6.47;;;3.60;;
73747;SDS011;62056;52.130;5.428;2023-05-10T11:19:11;3.88;;;3.20;;
73747;SDS011;62056;52.130;5.428;2023-05-10T11:21:48;3.40;;;3.10;;
73747;SDS011;62056;52.130;5.428;2023-05-10T11:24:16;3.95;;;3.50;;
73747;SDS011;62056;52.130;5.428;2023-05-10T11:26:45;3.80;;;3.40;;
73747;SDS011;62056;52.130;5.428;2023-05-10T11:29:12;5.05;;;3.42;;
73747;SDS011;62056;52.130;5.428;2023-05-10T11:31:43;4.40;;;3.40;;
73747;SDS011;62056;52.130;5.428;2023-05-10T11:34:11;6.18;;;3.42;;
73747;SDS011;62056;52.130;5.428;2023-05-10T11:36:52;7.00;;;3.88;;
73747;SDS011;62056;52.130;5.428;2023-05-10T11:39:20;6.15;;;2.92;;
73747;SDS011;62056;52.130;5.428;2023-05-10T11:41:48;3.65;;;3.35;;
73747;SDS011;62056;52.130;5.428;2023-05-10T11:44:15;6.63;;;3.10;;
73747;SDS011;62056;52.130;5.428;2023-05-10T11:46:42;9.77;;;6.63;;
73747;SDS011;62056;52.130;5.428;2023-05-10T11:49:09;4.70;;;3.22;;
73747;SDS011;62056;52.130;5.428;2023-05-10T11:51:37;4.55;;;3.30;;
73747;SDS011;62056;52.130;5.428;2023-05-10T11:54:06;4.28;;;3.83;;
73747;SDS011;62056;52.130;5.428;2023-05-10T11:56:37;4.72;;;3.33;;
73747;SDS011;62056;52.130;5.428;2023-05-10T11:59:04;3.03;;;2.73;;
73747;SDS011;62056;52.130;5.428;2023-05-10T12:01:31;2.72;;;2.20;;
73747;SDS011;62056;52.130;5.428;2023-05-10T12:03:59;3.42;;;2.90;;
73747;SDS011;62056;52.130;5.428;2023-05-10T12:06:28;3.97;;;2.90;;
73747;SDS011;62056;52.130;5.428;2023-05-10T12:08:57;3.10;;;2.60;;
73747;SDS011;62056;52.130;5.428;2023-05-10T12:11:25;4.70;;;1.85;;
73747;SDS011;62056;52.130;5.428;2023-05-10T12:13:58;4.45;;;3.13;;
73747;SDS011;62056;52.130;5.428;2023-05-10T12:16:25;2.25;;;1.90;;
73747;SDS011;62056;52.130;5.428;2023-05-10T12:18:56;3.30;;;1.83;;
73747;SDS011;62056;52.130;5.428;2023-05-10T12:21:24;2.30;;;1.80;;
73747;SDS011;62056;52.130;5.428;2023-05-10T12:24:19;1.98;;;1.75;;
73747;SDS011;62056;52.130;5.428;2023-05-10T12:26:48;2.65;;;2.00;;
73747;SDS011;62056;52.130;5.428;2023-05-10T12:29:17;1.70;;;1.42;;
73747;SDS011;62056;52.130;5.428;2023-05-10T12:31:50;3.05;;;1.90;;
73747;SDS011;62056;52.130;5.428;2023-05-10T12:34:25;2.58;;;2.22;;
73747;SDS011;62056;52.130;5.428;2023-05-10T12:37:02;3.22;;;2.40;;
73747;SDS011;62056;52.130;5.428;2023-05-10T12:39:39;3.95;;;2.65;;
73747;SDS011;62056;52.130;5.428;2023-05-10T12:42:06;2.25;;;1.88;;
73747;SDS011;62056;52.130;5.428;2023-05-10T12:44:33;2.90;;;1.60;;
73747;SDS011;62056;52.130;5.428;2023-05-10T12:47:00;3.63;;;2.20;;
73747;SDS011;62056;52.130;5.428;2023-05-10T12:49:27;1.83;;;1.63;;
73747;SDS011;62056;52.130;5.428;2023-05-10T12:51:54;2.17;;;1.70;;
73747;SDS011;62056;52.130;5.428;2023-05-10T12:54:20;2.67;;;1.45;;
73747;SDS011;62056;52.130;5.428;2023-05-10T12:56:48;2.80;;;2.00;;
73747;SDS011;62056;52.130;5.428;2023-05-10T12:59:14;2.85;;;2.03;;
73747;SDS011;62056;52.130;5.428;2023-05-10T13:01:42;2.27;;;1.90;;
73747;SDS011;62056;52.130;5.428;2023-05-10T13:04:08;3.00;;;1.60;;
73747;SDS011;62056;52.130;5.428;2023-05-10T13:06:35;3.53;;;1.92;;
73747;SDS011;62056;52.130;5.428;2023-05-10T13:09:02;2.08;;;1.10;;
73747;SDS011;62056;52.130;5.428;2023-05-10T13:11:29;1.65;;;1.13;;
73747;SDS011;62056;52.130;5.428;2023-05-10T13:13:56;1.60;;;1.27;;
73747;SDS011;62056;52.130;5.428;2023-05-10T13:16:23;2.00;;;1.40;;
73747;SDS011;62056;52.130;5.428;2023-05-10T13:18:51;2.45;;;1.67;;
73747;SDS011;62056;52.130;5.428;2023-05-10T13:21:18;2.00;;;1.75;;
73747;SDS011;62056;52.130;5.428;2023-05-10T13:23:45;4.38;;;1.92;;
73747;SDS011;62056;52.130;5.428;2023-05-10T13:26:13;2.92;;;2.60;;
73747;SDS011;62056;52.130;5.428;2023-05-10T13:28:39;2.53;;;2.13;;
73747;SDS011;62056;52.130;5.428;2023-05-10T13:31:06;3.55;;;3.25;;
73747;SDS011;62056;52.130;5.428;2023-05-10T13:33:34;3.95;;;3.55;;
73747;SDS011;62056;52.130;5.428;2023-05-10T13:36:00;5.40;;;3.60;;
73747;SDS011;62056;52.130;5.428;2023-05-10T13:38:28;3.83;;;3.45;;
73747;SDS011;62056;52.130;5.428;2023-05-10T13:40:55;3.78;;;3.08;;
73747;SDS011;62056;52.130;5.428;2023-05-10T13:43:23;8.00;;;3.17;;
73747;SDS011;62056;52.130;5.428;2023-05-10T13:45:50;3.95;;;3.55;;
73747;SDS011;62056;52.130;5.428;2023-05-10T13:48:17;2.50;;;2.30;;
73747;SDS011;62056;52.130;5.428;2023-05-10T13:50:43;3.45;;;2.47;;
73747;SDS011;62056;52.130;5.428;2023-05-10T13:53:38;3.08;;;2.70;;
73747;SDS011;62056;52.130;5.428;2023-05-10T13:56:04;4.50;;;3.20;;
73747;SDS011;62056;52.130;5.428;2023-05-10T13:58:59;4.30;;;3.67;;
73747;SDS011;62056;52.130;5.428;2023-05-10T14:01:26;5.13;;;3.47;;
73747;SDS011;62056;52.130;5.428;2023-05-10T14:03:53;3.15;;;2.85;;
73747;SDS011;62056;52.130;5.428;2023-05-10T14:06:19;4.28;;;3.15;;
73747;SDS011;62056;52.130;5.428;2023-05-10T14:08:46;3.35;;;2.47;;
73747;SDS011;62056;52.130;5.428;2023-05-10T14:11:13;5.63;;;3.75;;
73747;SDS011;62056;52.130;5.428;2023-05-10T14:13:40;5.27;;;4.10;;
73747;SDS011;62056;52.130;5.428;2023-05-10T14:16:07;4.03;;;3.45;;
73747;SDS011;62056;52.130;5.428;2023-05-10T14:18:34;5.10;;;4.35;;
73747;SDS011;62056;52.130;5.428;2023-05-10T14:21:01;6.50;;;3.83;;
73747;SDS011;62056;52.130;5.428;2023-05-10T14:23:33;4.55;;;3.63;;
73747;SDS011;62056;52.130;5.428;2023-05-10T14:26:00;6.30;;;4.18;;
73747;SDS011;62056;52.130;5.428;2023-05-10T14:28:28;5.15;;;2.88;;
73747;SDS011;62056;52.130;5.428;2023-05-10T14:30:56;4.40;;;3.72;;
73747;SDS011;62056;52.130;5.428;2023-05-10T14:33:50;4.38;;;3.88;;
73747;SDS011;62056;52.130;5.428;2023-05-10T14:36:17;4.43;;;3.95;;
73747;SDS011;62056;52.130;5.428;2023-05-10T14:38:44;5.43;;;4.10;;
73747;SDS011;62056;52.130;5.428;2023-05-10T14:41:11;4.80;;;3.45;;
73747;SDS011;62056;52.130;5.428;2023-05-10T14:44:08;5.38;;;4.00;;
73747;SDS011;62056;52.130;5.428;2023-05-10T14:46:34;5.65;;;4.47;;
73747;SDS011;62056;52.130;5.428;2023-05-10T14:49:28;6.60;;;4.03;;
73747;SDS011;62056;52.130;5.428;2023-05-10T14:51:55;5.70;;;4.20;;
73747;SDS011;62056;52.130;5.428;2023-05-10T14:54:22;6.88;;;5.47;;
73747;SDS011;62056;52.130;5.428;2023-05-10T14:56:49;4.18;;;3.63;;
73747;SDS011;62056;52.130;5.428;2023-05-10T14:59:18;7.13;;;4.43;;
73747;SDS011;62056;52.130;5.428;2023-05-10T15:01:45;5.22;;;3.70;;
73747;SDS011;62056;52.130;5.428;2023-05-10T15:04:13;13.27;;;7.53;;
73747;SDS011;62056;52.130;5.428;2023-05-10T15:06:43;7.40;;;4.68;;
73747;SDS011;62056;52.130;5.428;2023-05-10T15:09:09;5.65;;;4.55;;
73747;SDS011;62056;52.130;5.428;2023-05-10T15:11:36;6.60;;;4.72;;
73747;SDS011;62056;52.130;5.428;2023-05-10T15:14:02;7.63;;;4.88;;
73747;SDS011;62056;52.130;5.428;2023-05-10T15:16:29;4.63;;;3.83;;